Details From EGNX - Nottingham East Midlands
To EKCH - Kastrup
Flight Number -
Tags Generated
Created
Modified
Stats Distance 518 nm / 959 km
Max Altitude 0 ft / 0 m
Waypoints 3
Social Downloads 0
Likes 0
Share VATSIM

Download

Looking for another format? Having issues loading an existing format? Contact us
Advertisement - Login to hide

Notes

Generated

Route

EGNX NUSMO EKCH

ID Type Via Altitude Latitude Longitude Leg Dist Tot Dist Heading (true) Name
O EGNX APT - 0 ft / 0 m 52.83061˚ -1.34957˚ - 0 nm - -
NUSMO FIX - 0 ft / 0 m 55.59296˚ 12.43694˚ 510 nm 510 nm 66° / 77° -
O EKCH APT - 0 ft / 0 m 55.62761˚ 12.62973˚ 6 nm 517 nm 72° / 72° -

Altitude Profile

Advertisement - Login to hide

Weather


0- 5 10 15 20 25 30 35+ Temperature / ° C

Clouds and Precipitation
Forecast for 2018-05-23 18:00 UTC. Updated 25 minutes ago

Ground ~20,000 ft ~40,000 ft Winds

EGNX

Details ICAO EGNX (EMA)
Name East Midlands
Region United Kingdom
Timezone Europe/London (UTC+1.0)
Stats Elevation 306 ft / 93 m (AMSL)
Location 52.830999° -1.328155°
Runways 1
Magnetic Variation 0.967° W

METAR

EGNX 231720Z 06011KT CAVOK 16/10 Q1025

Decode

TAF

TAF EGNX 231101Z 2312/2412 03009KT 9999 FEW040 PROB30 2321/2324 BKN014 BECMG 2400/2403 BKN012 PROB30 TEMPO 2403/2407 9000 BKN008 BECMG 2407/2410 BKN016

Decode

Departure Runways

ID Width Length Bearing (true) Bearing (mag) Surface Threshold Offset Overrun Length
09 151 ft / 46 m 9,462 ft / 2,884 m 88.25° 89.22° Asphalt 587 ft / 179 m 92 ft / 28 m
27 151 ft / 46 m 9,462 ft / 2,884 m 268.29° 269.26° Asphalt 423 ft / 129 m 98 ft / 30 m

EKCH

Details ICAO EKCH (CPH)
Name Kastrup
Region Denmark / Faroe Islands
Timezone Europe/Copenhagen (UTC+2.0)
Stats Elevation 17 ft / 5 m (AMSL)
Location 55.612915° 12.640961°
Runways 3
Magnetic Variation 3.789° E

METAR

EKCH 231720Z 36009KT CAVOK 21/08 Q1025 NOSIG

Decode

TAF

TAF EKCH 231056Z 2312/2412 01006KT CAVOK TEMPO 2312/2319 19010KT= TAF EKBI 231104Z 2312/2412 09005KT CAVOK TEMPO 2409/2412 09015G25KT

Decode

Destination Runways

ID Width Length Bearing (true) Bearing (mag) Surface Threshold Offset Overrun Length
04L 148 ft / 45 m 11,848 ft / 3,611 m 41.15° 37.36° Asphalt 0 ft / 0 m 0 ft / 0 m
04R 148 ft / 45 m 10,814 ft / 3,296 m 41.15° 37.36° Asphalt 0 ft / 0 m 0 ft / 0 m
12 148 ft / 45 m 10,047 ft / 3,063 m 123.21° 119.42° Asphalt 2,313 ft / 705 m 0 ft / 0 m
22L 148 ft / 45 m 10,814 ft / 3,296 m 221.17° 217.38° Asphalt 0 ft / 0 m 0 ft / 0 m
22R 148 ft / 45 m 11,848 ft / 3,611 m 221.18° 217.39° Asphalt 2,018 ft / 615 m 0 ft / 0 m
30 148 ft / 45 m 10,047 ft / 3,063 m 303.25° 299.46° Asphalt 886 ft / 270 m 0 ft / 0 m

Approach Navaids

Runway Type Ident Frequency Range Bearing (true) Bearing (mag) Slope Elevation
04L Localiser CH 110.50 MHz 18 nm / 33 km 41.16° 37.37° - 17 ft / 5 m (AMSL)
04L Glidescope CH 110.50 MHz 10 nm / 19 km 41.16° 37.37° 3.00° 17 ft / 5 m (AMSL)
04L DME CH 110.50 MHz 18 nm / 33 km - - - 14 ft / 4 m (AMSL)
04R Localiser NE 109.30 MHz 18 nm / 33 km 41.18° 37.39° - 17 ft / 5 m (AMSL)
04R Glidescope NE 109.30 MHz 10 nm / 19 km 41.16° 37.37° 3.00° 17 ft / 5 m (AMSL)
12 Localiser KA 109.90 MHz 18 nm / 33 km 123.25° 119.46° - 17 ft / 5 m (AMSL)
12 Glidescope KA 109.90 MHz 10 nm / 19 km 123.23° 119.44° 3.00° 17 ft / 5 m (AMSL)
12 DME KA 109.90 MHz 18 nm / 33 km - - - 14 ft / 4 m (AMSL)
22L Localiser OXS 109.50 MHz 18 nm / 33 km 221.14° 217.35° - 17 ft / 5 m (AMSL)
22L Glidescope OXS 109.50 MHz 10 nm / 19 km 221.16° 217.37° 3.00° 17 ft / 5 m (AMSL)
22L DME OXS 109.50 MHz 18 nm / 33 km - - - 7 ft / 2 m (AMSL)
22R Localiser KLK 110.90 MHz 18 nm / 33 km 221.14° 217.36° - 17 ft / 5 m (AMSL)
22R Glidescope KLK 110.90 MHz 10 nm / 19 km 221.16° 217.37° 3.00° 17 ft / 5 m (AMSL)
22R DME KLK 110.90 MHz 18 nm / 33 km - - - 14 ft / 4 m (AMSL)
30 Localiser OY 108.90 MHz 18 nm / 33 km 303.23° 299.44° - 17 ft / 5 m (AMSL)
30 Glidescope OY 108.90 MHz 10 nm / 19 km 303.23° 299.44° 3.00° 17 ft / 5 m (AMSL)
30 DME OY 108.90 MHz 18 nm / 33 km - - - 9 ft / 3 m (AMSL)

Popular Alternatives